PWSweather.com
Personal Weather Stations
Station Observations
948974
Valtournenche, AostaIT 11028

ValtournencheAostaIT 11028

Lat: 45.877222, Lon: 7.625556

Elevation: 5085.3018

Station Type: PCE-FWS 20

http://www.cdso.it

High Low Average
Temperature 59.4°F15.2°C 47.4°F8.6°C 52.2°F11.2°C
Dew Point 51.9°F11.1°C 42.2°F5.7°C 47.7°F8.7°C
Winds 7.0 mph 11.3 kmh Calm Calm 2.0 mph SSE3.2 kmh SSE
Wind Gusts 12.0 mph19.3 kmh 2.0 mph3.2 kmh 5.0 mph8.0 kmh
Humidity 99% 67% 85%
Pressure 29.92 in1013.2 mb 29.75 in1007.5 mb -
Precipitation 0.34 in8.6 mm - -
Hour Temp Dew Point Humidity Winds Wind Gusts Pressure Precip Precip Rate Daily Precip Total
08:03 AM 47.4°F8.6°C 47.1°F8.4°C 99% 2.0 mph ENE3.2 kmh ENE 8.0 mph12.9 kmh 29.87 in1011.5 mb 0.00 in0.0 mm 0.00 in0.0 mm 0.20 in5.1 mm
08:21 AM 49.7°F9.8°C 49.1°F9.5°C 98% 1.0 mph ENE1.6 kmh ENE 4.0 mph6.4 kmh 29.84 in1010.5 mb 0.00 in0.0 mm 0.00 in0.0 mm 0.20 in5.1 mm
08:42 AM 53.3°F11.8°C 49.3°F9.6°C 86% 1.0 mph E1.6 kmh E 2.0 mph3.2 kmh 29.80 in1009.1 mb 0.00 in0.0 mm 0.00 in0.0 mm 0.20 in5.1 mm
09:03 AM 57.5°F14.2°C 47.8°F8.8°C 70% 1.0 mph E1.6 kmh E 3.0 mph4.8 kmh 29.75 in1007.5 mb 0.00 in0.0 mm 0.00 in0.0 mm 0.20 in5.1 mm
09:21 AM 56.9°F13.8°C 49.0°F9.4°C 75% 1.0 mph S1.6 kmh S 4.0 mph6.4 kmh 29.75 in1007.5 mb 0.00 in0.0 mm 0.00 in0.0 mm 0.20 in5.1 mm
09:42 AM 53.3°F11.8°C 49.2°F9.6°C 86% 2.0 mph SSE3.2 kmh SSE 5.0 mph8.0 kmh 29.80 in1009.1 mb 0.00 in0.0 mm 0.00 in0.0 mm 0.20 in5.1 mm
10:03 AM 55.1°F12.8°C 51.0°F10.6°C 86% 1.0 mph E1.6 kmh E 2.0 mph3.2 kmh 29.79 in1008.8 mb 0.00 in0.0 mm 0.00 in0.0 mm 0.20 in5.1 mm
10:21 AM 55.7°F13.2°C 49.7°F9.8°C 81% Calm Calm 2.0 mph3.2 kmh 29.79 in1008.8 mb 0.00 in0.0 mm 0.00 in0.0 mm 0.20 in5.1 mm
10:42 AM 56.2°F13.4°C 50.0°F10.0°C 80% 1.0 mph E1.6 kmh E 3.0 mph4.8 kmh 29.78 in1008.5 mb 0.00 in0.0 mm 0.00 in0.0 mm 0.20 in5.1 mm
11:03 AM 57.0°F13.9°C 46.6°F8.1°C 68% 1.0 mph E1.6 kmh E 3.0 mph4.8 kmh 29.78 in1008.5 mb 0.00 in0.0 mm 0.00 in0.0 mm 0.20 in5.1 mm
11:21 AM 56.9°F13.8°C 48.0°F8.9°C 72% 1.0 mph E1.6 kmh E 2.0 mph3.2 kmh 29.78 in1008.5 mb 0.00 in0.0 mm 0.00 in0.0 mm 0.20 in5.1 mm
11:42 AM 57.6°F14.2°C 48.6°F9.2°C 72% 1.0 mph E1.6 kmh E 4.0 mph6.4 kmh 29.77 in1008.1 mb 0.00 in0.0 mm 0.00 in0.0 mm 0.20 in5.1 mm
12:03 PM 59.4°F15.2°C 48.3°F9.1°C 67% 1.0 mph E1.6 kmh E 3.0 mph4.8 kmh 29.75 in1007.5 mb 0.00 in0.0 mm 0.00 in0.0 mm 0.20 in5.1 mm
12:21 PM 56.6°F13.7°C 49.4°F9.7°C 77% 5.0 mph SE8.0 kmh SE 12.0 mph19.3 kmh 29.79 in1008.8 mb 0.00 in0.0 mm 0.00 in0.0 mm 0.20 in5.1 mm
12:42 PM 54.7°F12.6°C 51.9°F11.1°C 90% 4.0 mph SE6.4 kmh SE 8.0 mph12.9 kmh 29.81 in1009.5 mb 0.00 in0.0 mm 0.00 in0.0 mm 0.20 in5.1 mm
01:03 PM 54.1°F12.3°C 51.9°F11.1°C 92% 3.0 mph SE4.8 kmh SE 5.0 mph8.0 kmh 29.81 in1009.5 mb 0.00 in0.0 mm 0.00 in0.0 mm 0.20 in5.1 mm
01:21 PM 54.2°F12.3°C 51.8°F11.0°C 92% 3.0 mph SE4.8 kmh SE 5.0 mph8.0 kmh 29.82 in1009.8 mb 0.00 in0.0 mm 0.00 in0.0 mm 0.20 in5.1 mm
01:42 PM 54.0°F12.2°C 51.5°F10.8°C 91% 3.0 mph S4.8 kmh S 7.0 mph11.3 kmh 29.82 in1009.8 mb 0.00 in0.0 mm 0.00 in0.0 mm 0.20 in5.1 mm
02:21 PM 54.4°F12.4°C 51.4°F10.8°C 90% 4.0 mph SW6.4 kmh SW 5.0 mph8.0 kmh 29.81 in1009.5 mb 0.00 in0.0 mm 0.00 in0.0 mm 0.20 in5.1 mm
02:42 PM 54.0°F12.2°C 51.6°F10.9°C 91% 4.0 mph SW6.4 kmh SW 8.0 mph12.9 kmh 29.82 in1009.8 mb 0.00 in0.0 mm 0.00 in0.0 mm 0.20 in5.1 mm
03:03 PM 53.0°F11.7°C 51.2°F10.7°C 94% 4.0 mph SW6.4 kmh SW 7.0 mph11.3 kmh 29.84 in1010.5 mb 0.00 in0.0 mm 0.00 in0.0 mm 0.20 in5.1 mm
03:21 PM 53.8°F12.1°C 51.8°F11.0°C 93% 1.0 mph SW1.6 kmh SW 2.0 mph3.2 kmh 29.83 in1010.2 mb 0.00 in0.0 mm 0.00 in0.0 mm 0.20 in5.1 mm
03:42 PM 54.3°F12.4°C 50.8°F10.4°C 88% 1.0 mph SW1.6 kmh SW 5.0 mph8.0 kmh 29.82 in1009.8 mb 0.00 in0.0 mm 0.00 in0.0 mm 0.20 in5.1 mm
04:03 PM 55.4°F13.0°C 51.3°F10.7°C 86% 1.0 mph SW1.6 kmh SW 2.0 mph3.2 kmh 29.81 in1009.5 mb 0.00 in0.0 mm 0.00 in0.0 mm 0.20 in5.1 mm
04:21 PM 54.5°F12.5°C 50.2°F10.1°C 86% 2.0 mph SW3.2 kmh SW 4.0 mph6.4 kmh 29.81 in1009.5 mb 0.00 in0.0 mm 0.00 in0.0 mm 0.20 in5.1 mm
04:42 PM 54.0°F12.2°C 50.6°F10.3°C 88% 1.0 mph SW1.6 kmh SW 3.0 mph4.8 kmh 29.82 in1009.8 mb 0.00 in0.0 mm 0.00 in0.0 mm 0.20 in5.1 mm
05:03 PM 53.1°F11.7°C 50.5°F10.3°C 91% 1.0 mph SW1.6 kmh SW 3.0 mph4.8 kmh 29.83 in1010.2 mb 0.01 in0.3 mm 0.02 in0.5 mm 0.21 in5.3 mm
05:21 PM 52.3°F11.3°C 50.3°F10.2°C 93% 1.0 mph SW1.6 kmh SW 2.0 mph3.2 kmh 29.84 in1010.5 mb 0.04 in1.0 mm 0.10 in2.5 mm 0.24 in6.1 mm
05:42 PM 50.5°F10.3°C 48.0°F8.9°C 91% 2.0 mph SW3.2 kmh SW 4.0 mph6.4 kmh 29.87 in1011.5 mb 0.06 in1.5 mm 0.06 in1.5 mm 0.26 in6.6 mm
06:03 PM 50.0°F10.0°C 48.3°F9.1°C 94% 3.0 mph NW4.8 kmh NW 5.0 mph8.0 kmh 29.88 in1011.9 mb 0.08 in2.0 mm 0.03 in0.8 mm 0.30 in7.6 mm
06:21 PM 48.8°F9.3°C 46.4°F8.0°C 91% 7.0 mph NW11.3 kmh NW 11.0 mph17.7 kmh 29.90 in1012.5 mb 0.07 in1.8 mm 0.00 in0.0 mm 0.31 in7.9 mm
06:42 PM 48.6°F9.2°C 45.7°F7.6°C 90% 3.0 mph NW4.8 kmh NW 8.0 mph12.9 kmh 29.90 in1012.5 mb 0.06 in1.5 mm 0.00 in0.0 mm 0.32 in8.1 mm
07:03 PM 47.8°F8.8°C 45.3°F7.4°C 91% 4.0 mph SE6.4 kmh SE 10.0 mph16.1 kmh 29.91 in1012.9 mb 0.02 in0.5 mm 0.00 in0.0 mm 0.32 in8.1 mm
07:21 PM 47.7°F8.7°C 45.1°F7.3°C 91% 3.0 mph SE4.8 kmh SE 6.0 mph9.7 kmh 29.91 in1012.9 mb 0.02 in0.5 mm 0.00 in0.0 mm 0.33 in8.4 mm
07:42 PM 47.8°F8.8°C 44.7°F7.1°C 89% 6.0 mph SE9.7 kmh SE 10.0 mph16.1 kmh 29.90 in1012.5 mb 0.02 in0.5 mm 0.00 in0.0 mm 0.34 in8.6 mm
08:21 PM 48.1°F8.9°C 43.5°F6.4°C 84% 3.0 mph SE4.8 kmh SE 8.0 mph12.9 kmh 29.90 in1012.5 mb 0.01 in0.3 mm 0.00 in0.0 mm 0.34 in8.6 mm
08:42 PM 47.6°F8.7°C 43.8°F6.6°C 87% 2.0 mph SE3.2 kmh SE 7.0 mph11.3 kmh 29.92 in1013.2 mb 0.00 in0.0 mm 0.00 in0.0 mm 0.34 in8.6 mm
09:21 PM 48.1°F8.9°C 43.9°F6.6°C 85% 3.0 mph SE4.8 kmh SE 7.0 mph11.3 kmh 29.91 in1012.9 mb 0.00 in0.0 mm 0.00 in0.0 mm 0.34 in8.6 mm
09:42 PM 48.3°F9.1°C 43.0°F6.1°C 82% 3.0 mph SE4.8 kmh SE 5.0 mph8.0 kmh 29.90 in1012.5 mb 0.00 in0.0 mm 0.00 in0.0 mm 0.34 in8.6 mm
10:03 PM 48.8°F9.3°C 42.2°F5.7°C 78% 2.0 mph SE3.2 kmh SE 5.0 mph8.0 kmh 29.89 in1012.2 mb 0.00 in0.0 mm 0.00 in0.0 mm 0.34 in8.6 mm
10:21 PM 48.5°F9.2°C 42.3°F5.7°C 79% 2.0 mph SE3.2 kmh SE 4.0 mph6.4 kmh 29.88 in1011.9 mb 0.00 in0.0 mm 0.00 in0.0 mm 0.34 in8.6 mm
10:42 PM 49.0°F9.4°C 42.5°F5.8°C 78% 4.0 mph SE6.4 kmh SE 7.0 mph11.3 kmh 29.87 in1011.5 mb 0.00 in0.0 mm 0.00 in0.0 mm 0.34 in8.6 mm
10:55 PM 48.2°F9.0°C 42.3°F5.7°C 80% 2.0 mph SE3.2 kmh SE 3.0 mph4.8 kmh 29.89 in1012.2 mb 0.00 in0.0 mm 0.00 in0.0 mm 0.34 in8.6 mm
11:16 PM 47.8°F8.8°C 42.9°F6.1°C 83% 4.0 mph SE6.4 kmh SE 6.0 mph9.7 kmh 29.88 in1011.9 mb 0.00 in0.0 mm 0.00 in0.0 mm 0.08 in2.0 mm
11:37 PM 48.2°F9.0°C 42.3°F5.7°C 80% 2.0 mph E3.2 kmh E 4.0 mph6.4 kmh 29.87 in1011.5 mb 0.00 in0.0 mm 0.00 in0.0 mm 0.08 in2.0 mm
11:58 PM 48.7°F9.3°C 42.2°F5.7°C 78% 2.0 mph E3.2 kmh E 2.0 mph3.2 kmh 29.86 in1011.2 mb 0.00 in0.0 mm 0.00 in0.0 mm 0.08 in2.0 mm